Time;durP1;ratioP1;P1;durP2;ratioP2;P2;SDS_P1;SDS_P2;PMS_P1;PMS_P2;Temp;Humidity;BMP_temperature;BMP_pressure;BME280_temperature;BME280_humidity;BME280_pressure;Samples;Min_cycle;Max_cycle;Signal;HPM_P1;HPM_P2
2023/06/06 00:00:30;;;;;;;10.90;8.73;;;;;;;14.34;100.00;101964.03;5268052;28;20104;-73
2023/06/06 00:03:02;;;;;;;12.13;8.93;;;;;;;14.29;100.00;101954.69;5265402;28;20031;-72
2023/06/06 00:05:33;;;;;;;11.55;8.80;;;;;;;14.27;100.00;101965.56;5270698;28;20453;-72
2023/06/06 00:08:06;;;;;;;11.20;8.82;;;;;;;14.19;100.00;101962.72;5266274;28;20025;-73
2023/06/06 00:10:37;;;;;;;12.77;9.52;;;;;;;14.17;100.00;101957.50;5268872;28;20309;-72
2023/06/06 00:13:13;;;;;;;13.57;8.82;;;;;;;14.09;100.00;101957.31;5273367;28;20430;-72
2023/06/06 00:15:45;;;;;;;12.90;9.23;;;;;;;14.12;100.00;101961.59;5265524;28;20527;-73
2023/06/06 00:18:16;;;;;;;11.65;8.93;;;;;;;14.09;100.00;101961.84;5265810;28;20719;-73
2023/06/06 00:20:48;;;;;;;14.82;9.05;;;;;;;14.05;100.00;101963.13;5268561;28;20032;-72
2023/06/06 00:23:20;;;;;;;14.73;9.05;;;;;;;13.97;100.00;101959.31;5277403;28;20024;-73
2023/06/06 00:25:52;;;;;;;14.18;9.07;;;;;;;13.99;100.00;101962.69;5268154;28;20034;-73
2023/06/06 00:28:24;;;;;;;13.75;9.38;;;;;;;13.92;100.00;101958.88;5266872;28;20031;-72
2023/06/06 00:30:55;;;;;;;12.98;9.02;;;;;;;13.90;100.00;101952.78;5264357;28;20028;-72
2023/06/06 00:33:26;;;;;;;13.98;9.32;;;;;;;13.83;100.00;101962.34;5266611;28;20036;-72
2023/06/06 00:35:58;;;;;;;11.30;8.98;;;;;;;13.82;100.00;101962.50;5265467;28;20032;-72
2023/06/06 00:38:29;;;;;;;12.05;9.52;;;;;;;13.74;100.00;101963.16;5267341;28;20032;-73
2023/06/06 00:41:00;;;;;;;12.85;9.35;;;;;;;13.71;100.00;101963.44;5270279;28;20512;-72
2023/06/06 00:43:31;;;;;;;12.18;9.80;;;;;;;13.67;100.00;101959.34;5269166;28;20488;-72
2023/06/06 00:46:03;;;;;;;13.75;9.15;;;;;;;13.66;100.00;101969.22;5266268;28;20122;-73
2023/06/06 00:48:34;;;;;;;14.10;9.52;;;;;;;13.66;100.00;101960.34;5264559;28;20024;-73
2023/06/06 00:51:08;;;;;;;13.18;9.63;;;;;;;13.58;100.00;101964.50;5269396;28;20103;-72
2023/06/06 00:53:39;;;;;;;15.63;9.48;;;;;;;13.58;100.00;101961.84;5266119;28;20574;-72
2023/06/06 00:56:13;;;;;;;13.15;9.07;;;;;;;13.49;100.00;101959.13;5272071;28;20059;-72
2023/06/06 00:58:44;;;;;;;12.38;9.15;;;;;;;13.43;100.00;101960.53;5271139;28;20653;-72
2023/06/06 01:01:16;;;;;;;13.13;9.57;;;;;;;13.44;100.00;101956.84;5267208;28;20032;-71
2023/06/06 01:03:48;;;;;;;12.00;9.20;;;;;;;13.46;100.00;101956.72;5264899;28;20040;-73
2023/06/06 01:06:22;;;;;;;10.77;9.38;;;;;;;13.40;100.00;101956.25;5268015;28;20031;-73
2023/06/06 01:08:53;;;;;;;12.45;9.10;;;;;;;13.36;100.00;101957.53;5262834;28;20390;-73
2023/06/06 01:11:57;;;;;;;11.23;9.20;;;;;;;13.30;100.00;101962.53;5271404;28;20389;-74
2023/06/06 01:14:56;;;;;;;10.23;9.13;;;;;;;13.34;100.00;101964.84;5249829;28;20461;-73
2023/06/06 01:17:28;;;;;;;12.10;9.23;;;;;;;13.27;100.00;101960.97;5268055;28;20114;-73
2023/06/06 01:20:00;;;;;;;12.10;9.15;;;;;;;13.18;100.00;101959.94;5266982;28;20478;-72
2023/06/06 01:22:33;;;;;;;12.00;9.63;;;;;;;13.09;100.00;101960.72;5266901;28;20497;-73
2023/06/06 01:25:06;;;;;;;13.95;8.80;;;;;;;13.03;100.00;101958.56;5266678;28;20324;-73
2023/06/06 01:27:38;;;;;;;11.80;9.57;;;;;;;13.01;100.00;101964.06;5269879;28;20036;-73
2023/06/06 01:30:10;;;;;;;15.75;9.85;;;;;;;12.99;100.00;101952.63;5264512;28;20392;-73
2023/06/06 01:33:00;;;;;;;10.35;9.10;;;;;;;13.06;100.00;101955.63;5265686;28;20031;-73
2023/06/06 01:36:09;;;;;;;14.30;9.93;;;;;;;13.01;100.00;101955.19;5267313;28;20028;-75
2023/06/06 01:38:47;;;;;;;16.45;10.15;;;;;;;12.85;100.00;101956.47;5225745;28;20049;-73
2023/06/06 01:41:20;;;;;;;12.13;9.25;;;;;;;12.88;100.00;101957.19;5262390;28;20075;-73
2023/06/06 01:43:54;;;;;;;16.60;9.75;;;;;;;12.81;100.00;101952.34;5264523;28;20490;-72
2023/06/06 01:46:27;;;;;;;14.32;9.63;;;;;;;12.74;100.00;101961.88;5271234;28;20032;-74
2023/06/06 01:48:58;;;;;;;12.43;9.27;;;;;;;12.73;100.00;101959.31;5268124;28;20036;-74
2023/06/06 01:51:30;;;;;;;14.10;10.02;;;;;;;12.73;100.00;101962.00;5265530;28;20508;-73
2023/06/06 01:54:01;;;;;;;12.35;9.75;;;;;;;12.71;100.00;101961.28;5266179;28;20036;-73
2023/06/06 01:56:33;;;;;;;12.30;9.50;;;;;;;12.68;100.00;101959.72;5262032;28;20041;-73
2023/06/06 01:59:05;;;;;;;14.60;9.25;;;;;;;12.68;100.00;101963.25;5261125;28;20110;-73
2023/06/06 02:01:36;;;;;;;11.88;9.20;;;;;;;12.65;100.00;101957.31;5263902;28;20092;-73
2023/06/06 02:04:07;;;;;;;16.10;9.85;;;;;;;12.59;100.00;101965.88;5264425;28;20364;-72
2023/06/06 02:06:39;;;;;;;15.10;10.05;;;;;;;12.47;100.00;101962.38;5263789;28;20326;-71
2023/06/06 02:09:11;;;;;;;15.13;9.75;;;;;;;12.47;100.00;101963.22;5263261;28;20097;-71
2023/06/06 02:11:42;;;;;;;12.68;9.32;;;;;;;12.44;100.00;101962.63;5266053;28;20134;-72
2023/06/06 02:14:15;;;;;;;12.70;9.77;;;;;;;12.44;100.00;101962.63;5268641;28;20028;-71
2023/06/06 02:16:48;;;;;;;13.32;9.57;;;;;;;12.29;100.00;101962.09;5271766;28;20036;-72
2023/06/06 02:19:19;;;;;;;12.77;9.27;;;;;;;12.26;100.00;101957.81;5263095;28;20028;-71
2023/06/06 02:21:51;;;;;;;13.90;9.68;;;;;;;12.26;100.00;101956.97;5265987;28;20024;-72
2023/06/06 02:24:25;;;;;;;13.48;9.85;;;;;;;12.27;100.00;101956.84;5269260;28;20028;-73
2023/06/06 02:26:57;;;;;;;15.88;10.02;;;;;;;12.23;100.00;101966.09;5262641;28;20612;-73
2023/06/06 02:29:29;;;;;;;12.32;9.60;;;;;;;12.16;100.00;101962.22;5266292;28;20865;-73
2023/06/06 02:32:00;;;;;;;14.60;9.93;;;;;;;12.12;100.00;101960.78;5265987;28;20090;-73
2023/06/06 02:34:32;;;;;;;18.95;10.25;;;;;;;12.13;100.00;101964.28;5274507;28;20603;-73
2023/06/06 02:37:09;;;;;;;11.68;9.45;;;;;;;12.04;100.00;101961.41;5272296;28;20051;-72
2023/06/06 02:39:41;;;;;;;14.68;9.15;;;;;;;12.04;100.00;101964.09;5263738;28;20032;-73
2023/06/06 02:42:12;;;;;;;17.65;10.02;;;;;;;12.01;100.00;101958.13;5260463;28;20470;-73
2023/06/06 02:44:43;;;;;;;12.02;9.25;;;;;;;12.01;100.00;101960.78;5265786;28;20033;-72
2023/06/06 02:47:15;;;;;;;15.52;9.80;;;;;;;11.99;100.00;101957.41;5263779;28;20509;-73
2023/06/06 02:49:46;;;;;;;12.20;9.45;;;;;;;11.92;100.00;101965.06;5263979;28;20113;-73
2023/06/06 02:52:18;;;;;;;13.05;9.63;;;;;;;11.89;100.00;101963.47;5261337;28;20028;-72
2023/06/06 02:54:49;;;;;;;13.07;10.43;;;;;;;11.81;100.00;101968.56;5264163;28;20152;-72
2023/06/06 02:57:21;;;;;;;13.88;9.82;;;;;;;11.84;100.00;101962.97;5262694;28;20728;-73
2023/06/06 02:59:53;;;;;;;13.65;9.70;;;;;;;11.80;100.00;101969.56;5262472;28;20036;-73
2023/06/06 03:02:24;;;;;;;11.50;9.57;;;;;;;11.82;100.00;101972.09;5267622;28;20345;-73
2023/06/06 03:04:56;;;;;;;16.40;10.25;;;;;;;11.77;100.00;101967.13;5267919;28;20059;-73
2023/06/06 03:07:27;;;;;;;12.60;9.50;;;;;;;11.70;100.00;101971.25;5269894;28;20024;-73
2023/06/06 03:09:58;;;;;;;12.38;9.38;;;;;;;11.67;100.00;101972.34;5269717;28;20028;-73
2023/06/06 03:12:30;;;;;;;12.80;9.93;;;;;;;11.64;100.00;101974.41;5269598;28;20066;-73
2023/06/06 03:15:01;;;;;;;12.27;9.73;;;;;;;11.62;100.00;101976.34;5269044;28;20524;-73
2023/06/06 03:17:32;;;;;;;13.55;9.85;;;;;;;11.68;100.00;101970.53;5271715;28;20053;-71
2023/06/06 03:20:06;;;;;;;12.73;9.23;;;;;;;11.69;100.00;101969.53;5270384;28;20078;-71
2023/06/06 03:22:39;;;;;;;13.95;9.23;;;;;;;11.59;100.00;101965.91;5272072;28;20032;-73
2023/06/06 03:25:13;;;;;;;11.40;8.68;;;;;;;11.64;100.00;101969.06;5270212;28;20067;-73
2023/06/06 03:27:46;;;;;;;13.15;9.05;;;;;;;11.62;100.00;101966.50;5274693;28;20396;-73
2023/06/06 03:30:17;;;;;;;15.05;9.45;;;;;;;11.55;100.00;101965.28;5272929;28;20545;-74
2023/06/06 03:32:49;;;;;;;15.38;10.23;;;;;;;11.50;100.00;101971.03;5265999;28;20031;-74
2023/06/06 03:35:20;;;;;;;11.95;8.95;;;;;;;11.49;100.00;101971.97;5272973;28;20539;-75
2023/06/06 03:37:55;;;;;;;11.43;8.48;;;;;;;11.46;100.00;101971.38;5267601;28;20595;-74
2023/06/06 03:40:26;;;;;;;15.45;10.20;;;;;;;11.47;100.00;101968.59;5271336;28;20024;-75
2023/06/06 03:42:58;;;;;;;13.95;9.70;;;;;;;11.37;100.00;101970.28;5270759;28;20339;-75
2023/06/06 03:45:29;;;;;;;14.48;8.98;;;;;;;11.44;100.00;101968.81;5267805;28;20058;-75
2023/06/06 03:48:00;;;;;;;12.82;9.40;;;;;;;11.48;100.00;101977.44;5271309;28;20052;-75
2023/06/06 03:50:32;;;;;;;14.40;9.93;;;;;;;11.51;100.00;101969.19;5264040;28;20340;-75
2023/06/06 03:53:03;;;;;;;13.73;9.38;;;;;;;11.40;100.00;101966.53;5266453;28;20226;-75
2023/06/06 03:55:34;;;;;;;11.50;9.20;;;;;;;11.34;100.00;101974.06;5271823;28;20071;-74
2023/06/06 03:58:07;;;;;;;11.20;9.25;;;;;;;11.34;100.00;101974.06;5269247;28;20032;-75
2023/06/06 04:00:39;;;;;;;13.45;9.23;;;;;;;11.40;100.00;101967.38;5268444;28;20035;-75
2023/06/06 04:03:11;;;;;;;15.85;8.90;;;;;;;11.43;100.00;101976.94;5267160;28;20200;-74
2023/06/06 04:05:44;;;;;;;13.05;9.02;;;;;;;11.47;100.00;101975.75;5269513;28;20115;-74
2023/06/06 04:08:16;;;;;;;13.48;9.73;;;;;;;11.44;100.00;101984.00;5267928;28;20499;-74
2023/06/06 04:10:47;;;;;;;12.27;8.73;;;;;;;11.41;100.00;101973.56;5267335;28;20486;-74
2023/06/06 04:13:19;;;;;;;14.15;9.60;;;;;;;11.45;100.00;101978.56;5267432;28;20405;-75
2023/06/06 04:15:50;;;;;;;11.77;9.23;;;;;;;11.48;100.00;101981.00;5267282;28;20119;-73
2023/06/06 04:18:21;;;;;;;13.38;9.10;;;;;;;11.46;100.00;101979.38;5270290;28;20409;-74
2023/06/06 04:20:53;;;;;;;15.68;9.43;;;;;;;11.45;100.00;101970.53;5266520;28;20028;-74
2023/06/06 04:23:24;;;;;;;12.73;9.65;;;;;;;11.42;100.00;101983.28;5267684;28;20032;-74
2023/06/06 04:25:56;;;;;;;11.95;9.43;;;;;;;11.45;100.00;101986.56;5267796;28;20310;-70
2023/06/06 04:28:27;;;;;;;13.20;9.13;;;;;;;11.46;100.00;101976.72;5266926;28;20111;-70
2023/06/06 04:30:59;;;;;;;14.13;9.55;;;;;;;11.53;100.00;101977.94;5273603;28;20480;-71
2023/06/06 04:33:31;;;;;;;13.43;9.35;;;;;;;11.50;100.00;101979.03;5268789;28;20501;-71
2023/06/06 04:36:02;;;;;;;11.77;8.65;;;;;;;11.57;100.00;101978.53;5271903;28;20035;-71
2023/06/06 04:38:37;;;;;;;13.15;9.35;;;;;;;11.61;100.00;101988.03;5269443;28;20098;-71
2023/06/06 04:41:08;;;;;;;16.77;9.85;;;;;;;11.58;100.00;101981.09;5270485;28;20039;-71
2023/06/06 04:43:40;;;;;;;12.15;9.35;;;;;;;11.57;100.00;101982.09;5273827;28;20035;-71
2023/06/06 04:46:11;;;;;;;14.20;9.73;;;;;;;11.59;100.00;101985.47;5270957;28;20115;-71
2023/06/06 04:48:44;;;;;;;15.13;9.70;;;;;;;11.64;100.00;101982.41;5271699;28;20173;-71
2023/06/06 04:51:16;;;;;;;13.30;9.18;;;;;;;11.61;100.00;101980.84;5272087;28;20845;-70
2023/06/06 04:53:50;;;;;;;12.00;9.57;;;;;;;11.71;100.00;101979.16;5268094;28;20078;-70
2023/06/06 04:56:22;;;;;;;13.90;9.63;;;;;;;11.71;100.00;101980.97;5264036;28;20078;-70
2023/06/06 04:58:53;;;;;;;10.38;8.65;;;;;;;11.72;100.00;101980.00;5268376;28;20404;-70
2023/06/06 05:01:25;;;;;;;12.88;9.27;;;;;;;11.78;100.00;101984.00;5266491;28;20111;-69
2023/06/06 05:03:56;;;;;;;13.30;9.73;;;;;;;11.85;100.00;101986.09;5264525;28;20038;-71
2023/06/06 05:06:28;;;;;;;15.25;9.63;;;;;;;11.95;100.00;101980.00;5267885;28;20306;-70
2023/06/06 05:09:07;;;;;;;14.65;10.27;;;;;;;11.87;100.00;101985.97;5269527;28;20588;-71
2023/06/06 05:11:44;;;;;;;14.35;10.13;;;;;;;11.98;100.00;101980.63;5267387;28;20064;-70
2023/06/06 05:14:16;;;;;;;14.90;10.02;;;;;;;11.99;100.00;101985.00;5267956;28;20024;-70
2023/06/06 05:16:51;;;;;;;12.30;9.65;;;;;;;12.07;100.00;101987.03;5266325;28;20437;-70
2023/06/06 05:19:23;;;;;;;14.13;8.88;;;;;;;12.15;100.00;101983.75;5269554;28;20039;-70
2023/06/06 05:21:54;;;;;;;16.05;10.13;;;;;;;12.15;100.00;101984.59;5262774;28;20493;-71
2023/06/06 05:24:25;;;;;;;13.02;9.38;;;;;;;12.24;100.00;101993.72;5267619;28;20020;-71
2023/06/06 05:26:56;;;;;;;13.68;9.65;;;;;;;12.24;100.00;101993.72;5268968;28;20034;-70
2023/06/06 05:29:28;;;;;;;13.15;10.02;;;;;;;12.26;100.00;101986.41;5265089;28;20028;-71
2023/06/06 05:31:59;;;;;;;15.07;10.48;;;;;;;12.24;100.00;101989.19;5266329;28;20843;-71
2023/06/06 05:34:30;;;;;;;14.43;9.52;;;;;;;12.29;100.00;101983.47;5267731;28;20111;-71
2023/06/06 05:37:02;;;;;;;15.85;10.32;;;;;;;12.30;100.00;101993.19;5291606;28;20043;-71
2023/06/06 05:39:33;;;;;;;14.70;9.85;;;;;;;12.26;100.00;101997.94;5265211;28;20055;-72
2023/06/06 05:42:05;;;;;;;14.32;10.13;;;;;;;12.36;100.00;101997.19;5268182;28;20034;-71
2023/06/06 05:44:36;;;;;;;12.80;10.25;;;;;;;12.47;100.00;101998.00;5269211;28;20032;-71
2023/06/06 05:47:07;;;;;;;12.48;9.95;;;;;;;12.48;100.00;101997.03;5265961;28;20758;-71
2023/06/06 05:49:39;;;;;;;16.02;10.77;;;;;;;12.62;100.00;101998.56;5267138;28;20492;-71
2023/06/06 05:52:10;;;;;;;15.50;10.48;;;;;;;12.65;100.00;101995.63;5269365;28;20055;-73
2023/06/06 05:54:43;;;;;;;18.10;10.73;;;;;;;12.70;100.00;101999.75;5271387;28;20063;-86
2023/06/06 05:57:22;;;;;;;13.15;10.38;;;;;;;12.78;100.00;101991.91;5268723;28;20612;-85
2023/06/06 05:59:53;;;;;;;13.85;9.82;;;;;;;12.85;100.00;101995.81;5268821;28;20035;-85
2023/06/06 06:02:25;;;;;;;14.73;9.15;;;;;;;12.99;100.00;102000.84;5267719;28;20027;-85
2023/06/06 06:04:56;;;;;;;12.88;10.77;;;;;;;12.98;100.00;101999.13;5271945;28;20028;-85
2023/06/06 06:07:28;;;;;;;15.35;9.95;;;;;;;13.10;100.00;101991.03;5274318;28;20067;-86
2023/06/06 06:09:59;;;;;;;13.80;10.10;;;;;;;13.15;100.00;101999.53;5270001;28;20029;-83
2023/06/06 06:12:30;;;;;;;14.18;9.68;;;;;;;13.36;100.00;101995.03;5269463;28;20024;-83
2023/06/06 06:15:02;;;;;;;12.02;9.90;;;;;;;13.44;100.00;102007.75;5272284;28;20032;-83
2023/06/06 06:17:33;;;;;;;14.00;9.82;;;;;;;13.65;100.00;101999.69;5273019;28;20028;-84
2023/06/06 06:20:08;;;;;;;14.43;10.57;;;;;;;13.78;100.00;101997.63;5277845;28;20024;-85
2023/06/06 06:22:40;;;;;;;13.73;10.07;;;;;;;13.99;100.00;101999.41;5268691;28;20114;-85
2023/06/06 06:25:14;;;;;;;13.10;9.75;;;;;;;14.12;100.00;101999.97;5265660;28;20392;-84
2023/06/06 06:27:47;;;;;;;14.43;10.20;;;;;;;14.33;100.00;102004.41;5276419;28;20595;-84
2023/06/06 06:30:18;;;;;;;13.32;10.05;;;;;;;14.51;100.00;102008.09;5273619;28;20025;-83
2023/06/06 06:32:50;;;;;;;13.38;9.98;;;;;;;14.66;100.00;102008.56;5264217;28;20066;-84
2023/06/06 06:35:22;;;;;;;12.98;9.60;;;;;;;14.85;100.00;102001.50;5272484;28;20034;-83
2023/06/06 06:37:53;;;;;;;13.63;9.70;;;;;;;15.14;100.00;102012.22;5276963;28;20052;-84
2023/06/06 06:40:24;;;;;;;15.50;10.23;;;;;;;15.31;100.00;102010.63;5274240;28;20032;-84
2023/06/06 06:42:55;;;;;;;13.18;10.27;;;;;;;15.57;100.00;102004.59;5272956;28;20055;-84
2023/06/06 06:45:27;;;;;;;13.73;10.07;;;;;;;15.75;100.00;102013.63;5273194;28;20094;-84
2023/06/06 06:47:59;;;;;;;11.98;8.90;;;;;;;15.97;100.00;102012.41;5273601;28;20390;-84
2023/06/06 06:50:31;;;;;;;14.30;9.45;;;;;;;16.15;100.00;102017.81;5275930;28;20369;-83
2023/06/06 06:53:02;;;;;;;12.95;9.70;;;;;;;16.40;100.00;102018.94;5272221;28;20078;-83
2023/06/06 06:55:34;;;;;;;13.60;9.48;;;;;;;16.59;100.00;102012.56;5269640;28;20043;-83
2023/06/06 06:58:08;;;;;;;15.38;9.20;;;;;;;16.62;100.00;102014.13;5274375;28;20423;-84
2023/06/06 07:00:40;;;;;;;11.15;9.00;;;;;;;16.95;100.00;102017.13;5270046;28;20151;-84
2023/06/06 07:03:12;;;;;;;10.68;8.57;;;;;;;17.25;100.00;102023.06;5269532;28;20452;-84
2023/06/06 07:05:43;;;;;;;13.00;9.38;;;;;;;17.32;100.00;102021.44;5273121;28;20032;-85
2023/06/06 07:08:14;;;;;;;16.60;9.43;;;;;;;17.54;100.00;102020.91;5270105;28;20928;-85
2023/06/06 07:10:46;;;;;;;12.63;8.55;;;;;;;17.74;100.00;102017.97;5273484;28;20119;-85
2023/06/06 07:13:18;;;;;;;12.18;9.32;;;;;;;17.75;100.00;102012.41;5271904;28;20113;-85
2023/06/06 07:15:49;;;;;;;12.52;9.30;;;;;;;17.98;100.00;102009.16;5269533;28;20602;-84
2023/06/06 07:18:21;;;;;;;15.27;8.90;;;;;;;18.09;100.00;102008.88;5271963;28;20028;-83
2023/06/06 07:20:52;;;;;;;11.70;8.55;;;;;;;18.33;100.00;102012.66;5275707;28;20024;-83
2023/06/06 07:23:23;;;;;;;13.30;8.98;;;;;;;18.48;100.00;102011.00;5290215;28;20572;-83
2023/06/06 07:25:55;;;;;;;13.32;8.75;;;;;;;18.52;100.00;102008.81;5276576;28;20147;-82
2023/06/06 07:28:26;;;;;;;16.95;8.95;;;;;;;18.66;100.00;102013.56;5273557;28;20085;-82
2023/06/06 07:30:57;;;;;;;12.75;8.82;;;;;;;18.67;100.00;102011.69;5276972;28;20029;-83
2023/06/06 07:33:28;;;;;;;11.63;8.90;;;;;;;18.72;100.00;102012.03;5273679;28;20476;-83
2023/06/06 07:36:00;;;;;;;13.30;9.23;;;;;;;18.81;100.00;102015.56;5271961;28;20393;-82
2023/06/06 07:38:31;;;;;;;11.63;9.00;;;;;;;18.94;100.00;102007.84;5282320;28;20036;-82
2023/06/06 07:41:02;;;;;;;14.10;8.82;;;;;;;19.07;100.00;102010.91;5275617;28;20099;-83
2023/06/06 07:43:34;;;;;;;11.70;8.30;;;;;;;19.38;100.00;101998.50;5271864;28;20195;-83
2023/06/06 07:46:05;;;;;;;11.13;8.57;;;;;;;19.45;100.00;102002.22;5284626;28;20071;-83
2023/06/06 07:48:36;;;;;;;10.98;8.38;;;;;;;20.01;100.00;101996.78;5284270;28;20033;-82
2023/06/06 07:51:08;;;;;;;11.43;8.60;;;;;;;20.28;100.00;101994.59;5283403;28;20029;-82
2023/06/06 07:53:39;;;;;;;11.38;7.97;;;;;;;20.44;100.00;101994.50;5278796;28;20032;-82
2023/06/06 07:56:13;;;;;;;10.45;7.65;;;;;;;20.71;100.00;101987.72;5277544;28;20032;-82
2023/06/06 07:58:53;;;;;;;11.10;8.23;;;;;;;20.72;100.00;101993.97;5287721;28;20055;-82
2023/06/06 08:01:25;;;;;;;15.40;9.18;;;;;;;20.62;100.00;101987.94;5275129;28;20032;-81
2023/06/06 08:03:57;;;;;;;12.88;8.13;;;;;;;20.73;100.00;101982.97;5274223;28;20489;-81
2023/06/06 08:06:32;;;;;;;12.25;8.57;;;;;;;20.87;100.00;101983.19;5277347;28;20028;-81
2023/06/06 08:09:08;;;;;;;11.70;8.30;;;;;;;21.14;100.00;101982.59;5276116;28;20028;-82
2023/06/06 08:11:39;;;;;;;10.93;8.73;;;;;;;21.12;100.00;101976.50;5280581;28;20036;-82
2023/06/06 08:14:10;;;;;;;12.13;7.63;;;;;;;21.70;100.00;101989.47;5277346;28;20032;-82
2023/06/06 08:16:42;;;;;;;10.43;8.13;;;;;;;21.85;100.00;101984.88;5278006;28;20024;-83
2023/06/06 08:19:14;;;;;;;9.98;7.82;;;;;;;22.20;100.00;101992.38;5272763;28;20140;-83
2023/06/06 08:21:45;;;;;;;11.85;8.02;;;;;;;22.56;100.00;101992.38;5270831;28;20344;-82
2023/06/06 08:24:16;;;;;;;14.13;7.70;;;;;;;22.76;100.00;101989.84;5271204;28;20035;-81
2023/06/06 08:26:48;;;;;;;9.30;7.25;;;;;;;23.01;100.00;101979.38;5283082;28;20372;-82
2023/06/06 08:29:19;;;;;;;11.13;6.35;;;;;;;23.02;100.00;101991.09;5273249;28;20805;-82
2023/06/06 08:31:52;;;;;;;11.90;7.28;;;;;;;23.33;100.00;101977.09;5268509;28;20028;-83
2023/06/06 08:34:23;;;;;;;9.18;7.57;;;;;;;23.41;100.00;101982.38;5270415;28;20035;-82
2023/06/06 08:36:55;;;;;;;12.70;7.50;;;;;;;23.51;100.00;101984.75;5280947;28;20043;-82
2023/06/06 08:39:26;;;;;;;10.23;7.03;;;;;;;23.71;100.00;101981.28;5275558;28;20092;-82
2023/06/06 08:41:58;;;;;;;9.25;7.63;;;;;;;23.87;100.00;101982.88;5268597;28;20096;-81
2023/06/06 08:44:29;;;;;;;15.77;7.43;;;;;;;24.29;100.00;101984.47;5282622;28;20024;-81
2023/06/06 08:47:02;;;;;;;9.07;7.40;;;;;;;24.24;100.00;101988.84;5275753;28;20121;-81
2023/06/06 08:49:36;;;;;;;11.60;7.97;;;;;;;24.54;100.00;101989.34;5279057;28;20021;-82
2023/06/06 08:52:08;;;;;;;8.60;7.28;;;;;;;24.19;100.00;101985.91;5269040;28;20102;-81
2023/06/06 08:54:40;;;;;;;9.48;7.22;;;;;;;24.24;100.00;101986.13;5285900;28;20093;-82
2023/06/06 08:57:11;;;;;;;12.18;7.53;;;;;;;24.47;100.00;101986.56;5269221;28;20024;-82
2023/06/06 08:59:42;;;;;;;12.95;7.65;;;;;;;24.53;100.00;101983.06;5279543;28;20035;-82
2023/06/06 09:02:15;;;;;;;12.85;7.97;;;;;;;24.48;100.00;101977.38;5267245;28;20127;-82
2023/06/06 09:04:47;;;;;;;14.90;7.68;;;;;;;24.71;100.00;101978.88;5275061;28;20556;-82
2023/06/06 09:07:20;;;;;;;13.80;7.80;;;;;;;24.98;100.00;101981.59;5265893;28;20113;-82
2023/06/06 09:09:52;;;;;;;11.30;8.20;;;;;;;24.96;100.00;101975.53;5273822;28;20050;-82
2023/06/06 09:12:23;;;;;;;10.07;7.22;;;;;;;25.12;100.00;101980.53;5269447;28;20558;-83
2023/06/06 09:14:54;;;;;;;12.18;7.32;;;;;;;25.24;100.00;101972.53;5274608;28;20033;-81
2023/06/06 09:17:26;;;;;;;10.02;7.00;;;;;;;25.54;100.00;101983.00;5269830;28;20129;-82
2023/06/06 09:19:58;;;;;;;8.85;6.80;;;;;;;25.62;100.00;101975.41;5273275;28;20039;-82
2023/06/06 09:22:36;;;;;;;9.40;7.28;;;;;;;25.98;100.00;101971.31;5276079;28;20492;-82
2023/06/06 09:25:22;;;;;;;9.10;6.95;;;;;;;26.26;100.00;101972.81;5272704;28;20400;-82
2023/06/06 09:28:01;;;;;;;16.73;7.07;;;;;;;26.59;100.00;101969.00;5265579;28;20059;-82
2023/06/06 09:30:33;;;;;;;14.38;7.22;;;;;;;26.85;100.00;101972.63;5270964;28;20029;-83
2023/06/06 09:33:05;;;;;;;11.25;7.38;;;;;;;26.75;100.00;101963.03;5267162;28;20518;-82
2023/06/06 09:35:43;;;;;;;10.40;6.93;;;;;;;26.87;100.00;101962.28;5274450;28;20400;-82
2023/06/06 09:38:16;;;;;;;14.05;7.13;;;;;;;26.93;100.00;101964.97;5272848;28;20066;-83
2023/06/06 09:40:51;;;;;;;11.30;6.72;;;;;;;27.56;100.00;101959.50;5268693;28;20030;-82
2023/06/06 09:43:24;;;;;;;;;;;;;;;28.35;100.00;101964.97;5273747;28;20099;-83
2023/06/06 09:45:58;;;;;;;13.48;7.40;;;;;;;27.41;99.14;101959.91;5271742;28;20289;-82
2023/06/06 09:48:30;;;;;;;7.95;6.55;;;;;;;27.81;100.00;101964.91;5269364;28;20512;-83
2023/06/06 09:51:02;;;;;;;9.77;6.40;;;;;;;27.79;99.28;101965.13;5275745;28;20084;-83
2023/06/06 09:53:35;;;;;;;8.02;6.15;;;;;;;28.24;98.84;101955.66;5277994;28;20385;-82
2023/06/06 09:56:07;;;;;;;11.60;6.68;;;;;;;28.26;96.88;101967.22;5267052;28;20861;-82
2023/06/06 09:58:39;;;;;;;10.55;6.22;;;;;;;28.20;94.93;101952.53;5275955;28;20029;-82
2023/06/06 10:01:12;;;;;;;10.38;6.55;;;;;;;28.32;96.12;101957.25;5267529;28;20032;-83
2023/06/06 10:03:44;;;;;;;9.13;5.97;;;;;;;28.63;96.21;101951.50;5265830;28;20029;-83
2023/06/06 10:06:15;;;;;;;15.13;6.53;;;;;;;28.99;93.37;101949.56;5264889;28;20040;-84
2023/06/06 10:08:48;;;;;;;9.80;6.43;;;;;;;28.94;90.72;101937.66;5263333;28;20033;-82
2023/06/06 10:11:21;;;;;;;11.57;6.28;;;;;;;28.77;89.10;101946.63;5269091;28;20448;-83
2023/06/06 10:13:54;;;;;;;9.25;6.15;;;;;;;28.96;90.84;101941.84;5270671;28;20038;-82
2023/06/06 10:16:27;;;;;;;11.35;6.25;;;;;;;28.53;88.44;101947.63;5267422;28;20031;-82
2023/06/06 10:19:00;;;;;;;9.70;7.03;;;;;;;28.33;88.08;101947.94;5267366;28;20155;-83
2023/06/06 10:21:32;;;;;;;11.13;5.82;;;;;;;28.63;89.83;101939.69;5265435;28;20036;-83
2023/06/06 10:24:04;;;;;;;8.52;6.20;;;;;;;28.64;90.83;101936.69;5266360;28;20029;-83
2023/06/06 10:27:16;;;;;;;9.65;5.97;;;;;;;29.41;92.28;101943.94;5272846;28;20047;-82
2023/06/06 10:29:59;;;;;;;11.27;5.97;;;;;;;29.72;87.26;101939.09;5269478;28;20038;-82
2023/06/06 10:32:49;;;;;;;9.00;6.32;;;;;;;29.74;87.07;101941.59;5266212;28;20032;-82
2023/06/06 10:35:21;;;;;;;8.95;5.95;;;;;;;29.72;84.93;101939.09;5275806;28;20592;-81
2023/06/06 10:38:21;;;;;;;9.40;5.50;;;;;;;30.42;87.22;101936.25;5287709;28;20067;-83
2023/06/06 10:40:58;;;;;;;9.07;5.85;;;;;;;30.38;82.65;101935.94;5263095;28;20387;-83
2023/06/06 10:43:35;;;;;;;8.02;6.38;;;;;;;30.52;83.15;101934.53;5279254;28;20024;-82
2023/06/06 10:46:07;;;;;;;9.82;5.25;;;;;;;30.42;79.38;101928.88;5269512;28;20034;-83
2023/06/06 10:48:39;;;;;;;9.25;5.10;;;;;;;30.42;78.41;101933.50;5276232;28;20064;-82
2023/06/06 10:51:29;;;;;;;10.82;5.40;;;;;;;30.96;79.80;101935.75;5264507;28;20139;-82
2023/06/06 10:54:17;;;;;;;7.85;5.53;;;;;;;31.09;79.53;101935.41;5265845;28;20189;-85
2023/06/06 10:56:53;;;;;;;12.93;5.10;;;;;;;30.77;76.92;101926.91;5269310;28;20029;-84
2023/06/06 10:59:31;;;;;;;8.05;5.25;;;;;;;30.97;76.80;101927.25;5268681;28;20051;-83
2023/06/06 11:02:11;;;;;;;7.85;4.40;;;;;;;31.54;77.65;101925.25;5272508;28;20385;-83
2023/06/06 11:04:43;;;;;;;11.15;5.43;;;;;;;31.35;73.52;101921.94;5270179;28;20032;-84
2023/06/06 11:07:16;;;;;;;10.70;5.35;;;;;;;31.22;71.85;101923.19;5266267;28;20100;-85
2023/06/06 11:09:48;;;;;;;9.40;4.68;;;;;;;31.29;72.57;101908.13;5264280;28;20537;-82
2023/06/06 11:12:20;;;;;;;7.15;5.28;;;;;;;31.12;70.66;101920.28;5267617;28;20028;-83
2023/06/06 11:14:57;;;;;;;6.57;4.65;;;;;;;31.40;71.08;101914.59;5266558;28;20025;-83
2023/06/06 11:17:43;;;;;;;6.35;5.10;;;;;;;31.48;74.41;101908.63;5270794;28;20028;-82
2023/06/06 11:20:19;;;;;;;8.15;4.78;;;;;;;31.45;71.93;101913.81;5266776;28;20390;-82
2023/06/06 11:22:58;;;;;;;7.72;5.20;;;;;;;31.55;68.82;101913.97;5270386;28;20036;-83
2023/06/06 11:25:30;;;;;;;7.53;4.82;;;;;;;31.77;69.55;101908.44;5269686;28;20106;-83
2023/06/06 11:28:02;;;;;;;8.35;4.32;;;;;;;31.88;68.44;101911.31;5273425;28;20120;-83
2023/06/06 11:30:35;;;;;;;10.63;4.68;;;;;;;31.83;66.18;101910.13;5274992;28;20452;-83
2023/06/06 11:33:09;;;;;;;8.40;4.65;;;;;;;32.03;64.84;101915.03;5271467;28;20565;-83
2023/06/06 11:35:41;;;;;;;6.57;5.15;;;;;;;31.84;66.42;101903.53;5275772;28;20058;-83
2023/06/06 11:38:13;;;;;;;9.85;4.20;;;;;;;31.81;66.02;101904.06;5275009;28;20035;-84